Time;durP1;ratioP1;P1;durP2;ratioP2;P2;SDS_P1;SDS_P2;PMS_P1;PMS_P2;Temp;Humidity;BMP_temperature;BMP_pressure;BME280_temperature;BME280_humidity;BME280_pressure;Samples;Min_cycle;Max_cycle;Signal;HPM_P1;HPM_P2
2023/06/08 00:02:17;;;;;;;15.40;13.77;;;;;;;;;;5077713;28;20939;-73
2023/06/08 00:04:44;;;;;;;15.60;13.53;;;;;;;;;;5077939;28;20443;-73
2023/06/08 00:07:14;;;;;;;15.77;14.17;;;;;;;;;;5078331;28;20403;-73
2023/06/08 00:09:40;;;;;;;16.73;14.80;;;;;;;;;;5078049;28;20534;-73
2023/06/08 00:12:06;;;;;;;16.07;14.30;;;;;;;;;;5078710;28;20378;-72
2023/06/08 00:14:34;;;;;;;15.60;13.97;;;;;;;;;;5078694;28;20452;-73
2023/06/08 00:17:03;;;;;;;15.97;14.47;;;;;;;;;;5078101;28;20410;-73
2023/06/08 00:19:36;;;;;;;17.80;15.90;;;;;;;;;;5077981;28;20378;-73
2023/06/08 00:22:07;;;;;;;16.07;14.37;;;;;;;;;;5078135;28;20385;-72
2023/06/08 00:24:33;;;;;;;17.30;14.70;;;;;;;;;;5078341;28;20494;-73
2023/06/08 00:26:59;;;;;;;18.20;14.73;;;;;;;;;;5077248;28;20390;-73
2023/06/08 00:29:25;;;;;;;17.07;15.50;;;;;;;;;;5077852;28;20465;-73
2023/06/08 00:31:52;;;;;;;15.73;14.33;;;;;;;;;;5077972;28;20516;-73
2023/06/08 00:34:18;;;;;;;16.53;14.87;;;;;;;;;;5077863;28;20483;-74
2023/06/08 00:36:44;;;;;;;15.20;13.50;;;;;;;;;;5078391;28;20467;-73
2023/06/08 00:39:10;;;;;;;20.67;15.30;;;;;;;;;;5078182;28;20545;-72
2023/06/08 00:41:36;;;;;;;15.20;13.67;;;;;;;;;;5077912;28;20406;-73
2023/06/08 00:44:05;;;;;;;15.53;14.03;;;;;;;;;;5078011;28;20473;-73
2023/06/08 00:46:31;;;;;;;22.73;17.20;;;;;;;;;;5077829;28;20403;-73
2023/06/08 00:48:57;;;;;;;17.47;15.70;;;;;;;;;;5077701;28;20878;-73
2023/06/08 00:51:24;;;;;;;21.40;16.43;;;;;;;;;;5077930;28;20393;-73
2023/06/08 00:53:50;;;;;;;19.80;17.03;;;;;;;;;;5078238;28;20473;-73
2023/06/08 00:56:16;;;;;;;20.80;17.50;;;;;;;;;;5077497;28;20410;-72
2023/06/08 00:58:48;;;;;;;20.70;18.67;;;;;;;;;;5077693;28;20719;-72
2023/06/08 01:01:18;;;;;;;26.70;20.13;;;;;;;;;;5077488;28;20408;-73
2023/06/08 01:03:47;;;;;;;20.70;18.90;;;;;;;;;;5078133;28;20422;-73
2023/06/08 01:06:16;;;;;;;20.43;18.37;;;;;;;;;;5077757;28;20396;-73
2023/06/08 01:08:55;;;;;;;19.27;17.40;;;;;;;;;;5077329;28;20378;-73
2023/06/08 01:11:47;;;;;;;20.50;18.50;;;;;;;;;;5077106;28;20411;-73
2023/06/08 01:14:27;;;;;;;18.43;16.60;;;;;;;;;;5068812;28;20450;-72
2023/06/08 01:16:55;;;;;;;19.10;16.73;;;;;;;;;;5077598;28;20399;-72
2023/06/08 01:19:38;;;;;;;17.83;15.93;;;;;;;;;;5076566;28;20415;-73
2023/06/08 01:22:20;;;;;;;18.40;16.37;;;;;;;;;;5077304;28;20793;-73
2023/06/08 01:24:50;;;;;;;17.50;15.80;;;;;;;;;;5077849;28;20420;-73
2023/06/08 01:27:19;;;;;;;19.83;17.83;;;;;;;;;;5076771;28;20412;-73
2023/06/08 01:29:47;;;;;;;19.20;17.30;;;;;;;;;;5076994;28;20393;-72
2023/06/08 01:32:13;;;;;;;19.07;17.07;;;;;;;;;;5076815;28;20466;-73
2023/06/08 01:34:40;;;;;;;19.83;17.73;;;;;;;;;;5076222;28;20437;-73
2023/06/08 01:37:10;;;;;;;18.43;15.63;;;;;;;;;;5076519;28;20415;-73
2023/06/08 01:39:51;;;;;;;19.37;16.27;;;;;;;;;;5076859;28;20378;-73
2023/06/08 01:42:19;;;;;;;22.03;17.73;;;;;;;;;;5076740;28;20410;-73
2023/06/08 01:44:53;;;;;;;17.80;15.80;;;;;;;;;;5076791;28;20443;-73
2023/06/08 01:47:19;;;;;;;21.23;15.13;;;;;;;;;;5077157;28;20402;-73
2023/06/08 01:49:46;;;;;;;15.43;13.93;;;;;;;;;;5076329;28;20418;-73
2023/06/08 01:52:12;;;;;;;15.30;12.67;;;;;;;;;;5077027;28;20386;-73
2023/06/08 01:54:38;;;;;;;14.07;12.40;;;;;;;;;;5076285;28;20460;-73
2023/06/08 01:57:05;;;;;;;17.00;15.37;;;;;;;;;;5075512;28;20904;-73
2023/06/08 01:59:31;;;;;;;19.50;16.17;;;;;;;;;;5076509;28;20443;-73
2023/06/08 02:01:57;;;;;;;16.70;15.20;;;;;;;;;;5077093;28;20394;-73
2023/06/08 02:04:23;;;;;;;18.37;16.67;;;;;;;;;;5076489;28;20382;-75
2023/06/08 02:06:49;;;;;;;22.90;16.83;;;;;;;;;;5076797;28;20486;-73
2023/06/08 02:09:15;;;;;;;23.10;17.73;;;;;;;;;;5077051;28;20386;-73
2023/06/08 02:11:41;;;;;;;20.20;18.20;;;;;;;;;;5076439;28;20411;-73
2023/06/08 02:14:07;;;;;;;18.73;16.93;;;;;;;;;;5076504;28;20441;-73
2023/06/08 02:16:33;;;;;;;21.73;18.30;;;;;;;;;;5076314;28;20716;-73
2023/06/08 02:19:01;;;;;;;20.37;18.33;;;;;;;;;;5076598;28;20414;-73
2023/06/08 02:21:27;;;;;;;25.93;18.70;;;;;;;;;;5076457;28;20422;-73
2023/06/08 02:23:53;;;;;;;22.03;18.57;;;;;;;;;;5076483;28;20411;-73
2023/06/08 02:26:19;;;;;;;20.77;18.77;;;;;;;;;;5076650;28;20385;-73
2023/06/08 02:28:45;;;;;;;27.07;20.90;;;;;;;;;;5075757;28;20411;-73
2023/06/08 02:31:12;;;;;;;21.47;19.17;;;;;;;;;;5076070;28;20465;-73
2023/06/08 02:33:38;;;;;;;22.57;20.07;;;;;;;;;;5075378;28;20478;-73
2023/06/08 02:36:06;;;;;;;22.00;18.30;;;;;;;;;;5076099;28;20407;-72
2023/06/08 02:38:32;;;;;;;20.57;18.37;;;;;;;;;;5076193;28;20426;-73
2023/06/08 02:40:58;;;;;;;20.13;17.97;;;;;;;;;;5075852;28;20880;-73
2023/06/08 02:43:24;;;;;;;19.57;17.73;;;;;;;;;;5076029;28;20393;-72
2023/06/08 02:45:50;;;;;;;20.97;18.80;;;;;;;;;;5076164;28;20395;-73
2023/06/08 02:48:16;;;;;;;19.40;17.33;;;;;;;;;;5076690;28;20751;-73
2023/06/08 02:50:42;;;;;;;21.30;19.03;;;;;;;;;;5076079;28;20413;-73
2023/06/08 02:53:08;;;;;;;22.03;18.33;;;;;;;;;;5076164;28;20851;-73
2023/06/08 02:55:36;;;;;;;18.87;17.03;;;;;;;;;;5076074;28;20382;-73
2023/06/08 02:58:03;;;;;;;21.47;19.17;;;;;;;;;;5076469;28;20919;-73
2023/06/08 03:00:32;;;;;;;22.80;19.30;;;;;;;;;;5076001;28;20762;-73
2023/06/08 03:03:02;;;;;;;25.83;19.57;;;;;;;;;;5076468;28;20401;-73
2023/06/08 03:05:29;;;;;;;21.67;19.37;;;;;;;;;;5075993;28;20914;-73
2023/06/08 03:07:58;;;;;;;22.07;19.80;;;;;;;;;;5076836;28;20386;-73
2023/06/08 03:10:24;;;;;;;27.50;21.10;;;;;;;;;;5076449;28;20397;-73
2023/06/08 03:12:50;;;;;;;24.13;21.60;;;;;;;;;;5075882;28;20901;-73
2023/06/08 03:15:22;;;;;;;29.90;22.07;;;;;;;;;;5076336;28;20396;-73
2023/06/08 03:17:48;;;;;;;24.90;21.07;;;;;;;;;;5075661;28;20434;-73
2023/06/08 03:20:17;;;;;;;27.00;22.50;;;;;;;;;;5076551;28;20378;-73
2023/06/08 03:22:45;;;;;;;22.83;20.40;;;;;;;;;;5075539;28;20508;-72
2023/06/08 03:25:15;;;;;;;21.53;19.50;;;;;;;;;;5076444;28;20389;-73
2023/06/08 03:27:41;;;;;;;24.40;21.80;;;;;;;;;;5075553;28;20415;-73
2023/06/08 03:30:07;;;;;;;21.57;19.37;;;;;;;;;;5075973;28;20381;-73
2023/06/08 03:32:33;;;;;;;25.17;19.10;;;;;;;;;;5075543;28;20433;-74
2023/06/08 03:34:59;;;;;;;25.57;22.10;;;;;;;;;;5075819;28;20417;-73
2023/06/08 03:37:25;;;;;;;21.60;19.40;;;;;;;;;;5075872;28;20776;-73
2023/06/08 03:39:51;;;;;;;25.53;22.13;;;;;;;;;;5075786;28;20452;-73
2023/06/08 03:42:17;;;;;;;23.53;21.20;;;;;;;;;;5076329;28;20378;-73
2023/06/08 03:44:43;;;;;;;25.17;21.63;;;;;;;;;;5075746;28;20761;-73
2023/06/08 03:47:12;;;;;;;30.10;23.33;;;;;;;;;;5075820;28;20396;-73
2023/06/08 03:49:38;;;;;;;26.67;22.47;;;;;;;;;;5075558;28;20452;-73
2023/06/08 03:52:04;;;;;;;28.20;21.47;;;;;;;;;;5076034;28;20442;-73
2023/06/08 03:54:30;;;;;;;26.30;23.60;;;;;;;;;;5075752;28;20462;-74
2023/06/08 03:56:56;;;;;;;25.63;21.43;;;;;;;;;;5075789;28;20923;-73
2023/06/08 03:59:22;;;;;;;32.27;22.90;;;;;;;;;;5079733;28;20458;-73
2023/06/08 04:01:49;;;;;;;26.30;21.43;;;;;;;;;;5078995;28;20434;-73
2023/06/08 04:04:15;;;;;;;22.73;20.40;;;;;;;;;;5078182;28;20415;-73
2023/06/08 04:06:41;;;;;;;26.40;21.67;;;;;;;;;;5079010;28;20757;-73
2023/06/08 04:09:08;;;;;;;25.10;22.37;;;;;;;;;;5078282;28;20378;-73
2023/06/08 04:11:34;;;;;;;24.90;21.23;;;;;;;;;;5078782;28;20929;-74
2023/06/08 04:14:00;;;;;;;26.30;21.80;;;;;;;;;;5079306;28;20449;-73
2023/06/08 04:16:26;;;;;;;24.13;21.60;;;;;;;;;;5079487;28;20387;-73
2023/06/08 04:18:53;;;;;;;24.40;21.80;;;;;;;;;;5078983;28;20382;-73
2023/06/08 04:21:21;;;;;;;29.10;23.23;;;;;;;;;;5078658;28;20494;-73
2023/06/08 04:23:48;;;;;;;25.80;22.70;;;;;;;;;;5079279;28;20456;-73
2023/06/08 04:26:15;;;;;;;26.13;23.47;;;;;;;;;;5078999;28;20415;-73
2023/06/08 04:28:41;;;;;;;24.03;21.53;;;;;;;;;;5078902;28;20425;-73
2023/06/08 04:31:08;;;;;;;25.07;22.77;;;;;;;;;;5078930;28;20470;-73
2023/06/08 04:33:34;;;;;;;24.13;21.83;;;;;;;;;;5077962;28;20473;-74
2023/06/08 04:36:00;;;;;;;25.03;22.53;;;;;;;;;;5079064;28;20859;-73
2023/06/08 04:38:27;;;;;;;23.20;20.60;;;;;;;;;;5078791;28;20418;-73
2023/06/08 04:40:54;;;;;;;23.23;21.03;;;;;;;;;;5078652;28;20974;-73
2023/06/08 04:43:20;;;;;;;26.70;21.27;;;;;;;;;;5078811;28;20382;-73
2023/06/08 04:45:51;;;;;;;26.23;22.43;;;;;;;;;;5078776;28;20411;-73
2023/06/08 04:48:19;;;;;;;27.97;22.57;;;;;;;;;;5078748;28;20705;-73
2023/06/08 04:50:45;;;;;;;26.80;23.27;;;;;;;;;;5078236;28;20419;-74
2023/06/08 04:53:12;;;;;;;27.20;22.93;;;;;;;;;;5078124;28;20933;-73
2023/06/08 04:55:38;;;;;;;30.47;22.70;;;;;;;;;;5078323;28;20407;-74
2023/06/08 04:58:04;;;;;;;33.70;25.10;;;;;;;;;;5078576;28;20407;-73
2023/06/08 05:00:30;;;;;;;27.33;22.70;;;;;;;;;;5078086;28;20754;-73
2023/06/08 05:02:56;;;;;;;28.37;22.97;;;;;;;;;;5078141;28;20401;-74
2023/06/08 05:05:22;;;;;;;32.87;24.80;;;;;;;;;;5078437;28;20404;-73
2023/06/08 05:07:48;;;;;;;27.20;23.30;;;;;;;;;;5078122;28;20382;-73
2023/06/08 05:10:14;;;;;;;28.17;22.80;;;;;;;;;;5077733;28;20403;-73
2023/06/08 05:12:40;;;;;;;30.13;22.63;;;;;;;;;;5077706;28;20400;-74
2023/06/08 05:15:06;;;;;;;25.63;22.63;;;;;;;;;;5077715;28;20414;-73
2023/06/08 05:17:32;;;;;;;28.03;22.57;;;;;;;;;;5077371;28;20407;-73
2023/06/08 05:19:58;;;;;;;27.87;21.93;;;;;;;;;;5077578;28;20389;-73
2023/06/08 05:22:24;;;;;;;28.47;21.90;;;;;;;;;;5077790;28;20418;-73
2023/06/08 05:24:50;;;;;;;27.57;21.20;;;;;;;;;;5077523;28;20738;-73
2023/06/08 05:27:16;;;;;;;29.53;21.80;;;;;;;;;;5077472;28;20419;-73
2023/06/08 05:29:42;;;;;;;27.50;21.50;;;;;;;;;;5076433;28;20382;-73
2023/06/08 05:32:09;;;;;;;24.93;20.97;;;;;;;;;;5077519;28;20474;-73
2023/06/08 05:34:35;;;;;;;23.47;19.60;;;;;;;;;;5077329;28;20441;-72
2023/06/08 05:37:01;;;;;;;29.27;19.63;;;;;;;;;;5077794;28;20409;-73
2023/06/08 05:39:27;;;;;;;31.50;18.90;;;;;;;;;;5077647;28;20403;-73
2023/06/08 05:41:53;;;;;;;24.17;19.50;;;;;;;;;;5077769;28;20811;-73
2023/06/08 05:44:19;;;;;;;24.57;19.20;;;;;;;;;;5076543;28;20388;-73
2023/06/08 05:46:45;;;;;;;25.73;19.13;;;;;;;;;;5077247;28;20378;-73
2023/06/08 05:49:11;;;;;;;24.63;20.10;;;;;;;;;;5075181;28;20861;-86
2023/06/08 05:51:37;;;;;;;23.10;17.37;;;;;;;;;;5077450;28;20496;-84
2023/06/08 05:54:03;;;;;;;21.43;17.10;;;;;;;;;;5076486;28;20466;-86
2023/06/08 05:56:30;;;;;;;25.53;17.33;;;;;;;;;;5075961;28;20391;-86
2023/06/08 05:58:56;;;;;;;19.10;17.27;;;;;;;;;;5075255;28;20374;-86
2023/06/08 06:01:23;;;;;;;18.10;15.30;;;;;;;;;;5076035;28;20393;-86
2023/06/08 06:03:50;;;;;;;29.77;17.20;;;;;;;;;;5075646;28;20423;-86
2023/06/08 06:06:16;;;;;;;18.07;16.20;;;;;;;;;;5072656;28;20825;-87
2023/06/08 06:08:42;;;;;;;22.23;14.63;;;;;;;;;;5056111;28;20387;-86
2023/06/08 06:11:08;;;;;;;20.20;15.27;;;;;;;;;;5056041;28;20383;-85
2023/06/08 06:13:36;;;;;;;18.97;15.27;;;;;;;;;;5055693;28;20444;-85
2023/06/08 06:16:02;;;;;;;16.43;14.20;;;;;;;;;;5055617;28;20415;-86
2023/06/08 06:18:28;;;;;;;24.37;15.30;;;;;;;;;;5056953;28;20510;-86
2023/06/08 06:20:54;;;;;;;21.03;15.33;;;;;;;;;;5062660;28;20939;-86
2023/06/08 06:23:20;;;;;;;18.87;13.80;;;;;;;;;;5063553;28;20414;-86
2023/06/08 06:25:46;;;;;;;19.47;14.63;;;;;;;;;;5061019;28;20382;-86
2023/06/08 06:28:12;;;;;;;16.23;13.97;;;;;;;;;;5055645;28;20773;-86
2023/06/08 06:30:38;;;;;;;22.40;14.33;;;;;;;;;;5055778;28;20404;-86
2023/06/08 06:33:04;;;;;;;18.00;13.90;;;;;;;;;;5055680;28;20483;-85
2023/06/08 06:35:30;;;;;;;18.30;14.00;;;;;;;;;;5055806;28;20375;-86
2023/06/08 06:37:56;;;;;;;15.27;12.57;;;;;;;;;;5055717;28;20499;-85
2023/06/08 06:40:22;;;;;;;17.30;12.67;;;;;;;;;;5058662;28;20422;-86
2023/06/08 06:42:48;;;;;;;17.67;13.27;;;;;;;;;;5065211;28;20863;-86
2023/06/08 06:45:15;;;;;;;19.00;12.80;;;;;;;;;;5065305;28;20400;-86
2023/06/08 06:47:41;;;;;;;17.00;12.30;;;;;;;;;;5067789;28;20416;-85
2023/06/08 06:50:07;;;;;;;18.90;12.90;;;;;;;;;;5068151;28;20408;-86
2023/06/08 06:52:34;;;;;;;14.53;12.83;;;;;;;;;;5066943;28;20443;-85
2023/06/08 06:55:03;;;;;;;13.43;12.03;;;;;;;;;;5066769;28;20430;-86
2023/06/08 06:57:31;;;;;;;16.57;12.37;;;;;;;;;;5059782;28;20402;-86
2023/06/08 06:59:57;;;;;;;15.90;11.23;;;;;;;;;;5061041;28;20424;-86
2023/06/08 07:02:25;;;;;;;13.20;11.90;;;;;;;;;;5062783;28;20416;-86
2023/06/08 07:04:54;;;;;;;16.13;12.27;;;;;;;;;;5062278;28;20387;-86
2023/06/08 07:07:20;;;;;;;19.33;12.17;;;;;;;;;;5062477;28;20464;-86
2023/06/08 07:09:46;;;;;;;14.00;11.20;;;;;;;;;;5062221;28;20393;-86
2023/06/08 07:12:12;;;;;;;16.23;10.73;;;;;;;;;;5061307;28;20408;-86
2023/06/08 07:14:38;;;;;;;13.87;10.07;;;;;;;;;;5058828;28;20471;-86
2023/06/08 07:17:04;;;;;;;13.87;10.30;;;;;;;;;;5062629;28;20418;-86
2023/06/08 07:19:31;;;;;;;12.50;10.63;;;;;;;;;;5061003;28;20412;-86
2023/06/08 07:21:57;;;;;;;12.97;10.17;;;;;;;;;;5057851;28;20438;-86
2023/06/08 07:24:23;;;;;;;9.87;8.97;;;;;;;;;;5057224;28;20499;-75
2023/06/08 07:26:49;;;;;;;15.97;9.47;;;;;;;;;;5055177;28;20507;-76
2023/06/08 07:29:15;;;;;;;18.20;10.10;;;;;;;;;;5055660;28;20408;-75
2023/06/08 07:31:41;;;;;;;11.67;10.43;;;;;;;;;;5056422;28;20968;-75
2023/06/08 07:34:07;;;;;;;14.20;9.03;;;;;;;;;;5058632;28;20803;-76
2023/06/08 07:36:35;;;;;;;9.03;7.47;;;;;;;;;;5058605;28;20400;-75
2023/06/08 07:39:04;;;;;;;9.67;7.57;;;;;;;;;;5058572;28;20408;-76
2023/06/08 07:41:30;;;;;;;14.07;7.87;;;;;;;;;;5059490;28;20400;-75
2023/06/08 07:43:56;;;;;;;11.10;7.63;;;;;;;;;;5057822;28;20904;-76
2023/06/08 07:46:22;;;;;;;11.87;7.50;;;;;;;;;;5058901;28;20418;-76
2023/06/08 07:48:49;;;;;;;8.80;7.97;;;;;;;;;;5058733;28;20893;-76
2023/06/08 07:51:15;;;;;;;11.20;7.80;;;;;;;;;;5058722;28;20418;-75
2023/06/08 07:53:41;;;;;;;9.43;7.63;;;;;;;;;;5058370;28;20451;-75
2023/06/08 07:56:07;;;;;;;10.80;8.10;;;;;;;;;;5058301;28;20432;-76
2023/06/08 07:58:33;;;;;;;10.07;8.57;;;;;;;;;;5058174;28;20421;-76
2023/06/08 08:01:00;;;;;;;9.40;7.50;;;;;;;;;;5058405;28;20781;-76
2023/06/08 08:03:26;;;;;;;10.43;7.97;;;;;;;;;;5058706;28;20428;-75
2023/06/08 08:05:52;;;;;;;10.63;7.70;;;;;;;;;;5058395;28;20834;-76
2023/06/08 08:08:18;;;;;;;8.70;6.53;;;;;;;;;;5058464;28;20431;-76
2023/06/08 08:10:44;;;;;;;9.23;7.67;;;;;;;;;;5058400;28;20396;-76
2023/06/08 08:13:12;;;;;;;8.97;7.47;;;;;;;;;;5058062;28;20455;-76
2023/06/08 08:15:40;;;;;;;6.33;5.73;;;;;;;;;;5058581;28;20440;-76
2023/06/08 08:18:06;;;;;;;7.13;6.33;;;;;;;;;;5058100;28;20416;-76
2023/06/08 08:20:32;;;;;;;7.10;6.40;;;;;;;;;;5057895;28;20393;-76
2023/06/08 08:22:58;;;;;;;6.87;6.20;;;;;;;;;;5057533;28;20529;-77
2023/06/08 08:25:24;;;;;;;9.07;6.93;;;;;;;;;;5057986;28;20392;-77
2023/06/08 08:27:50;;;;;;;7.30;6.60;;;;;;;;;;5058021;28;20499;-75
2023/06/08 08:30:16;;;;;;;8.67;7.40;;;;;;;;;;5057913;28;20443;-74
2023/06/08 08:32:42;;;;;;;7.60;6.80;;;;;;;;;;5057461;28;20467;-74
2023/06/08 08:35:10;;;;;;;7.47;6.77;;;;;;;;;;5057097;28;20400;-74
2023/06/08 08:37:36;;;;;;;8.93;6.70;;;;;;;;;;5057379;28;20404;-74
2023/06/08 08:40:02;;;;;;;7.70;7.00;;;;;;;;;;5057315;28;20408;-75
2023/06/08 08:42:31;;;;;;;7.13;6.50;;;;;;;;;;5057015;28;20403;-74
2023/06/08 08:45:00;;;;;;;7.50;6.73;;;;;;;;;;5057022;28;20412;-75
2023/06/08 08:47:28;;;;;;;8.70;7.37;;;;;;;;;;5057303;28;20400;-74
2023/06/08 08:50:06;;;;;;;9.20;6.70;;;;;;;;;;5056471;28;20400;-74
2023/06/08 08:52:37;;;;;;;7.10;6.50;;;;;;;;;;5057356;28;20418;-74
2023/06/08 08:55:04;;;;;;;7.70;6.50;;;;;;;;;;5056656;28;20432;-75
2023/06/08 08:57:31;;;;;;;9.00;6.23;;;;;;;;;;5056723;28;20411;-74
2023/06/08 08:59:57;;;;;;;6.97;6.33;;;;;;;;;;5056477;28;20400;-73
2023/06/08 09:02:24;;;;;;;6.93;6.27;;;;;;;;;;5056615;28;20416;-74
2023/06/08 09:04:50;;;;;;;6.90;6.30;;;;;;;;;;5056184;28;20876;-74
2023/06/08 09:07:20;;;;;;;6.60;6.00;;;;;;;;;;5056525;28;20419;-73
2023/06/08 09:10:04;;;;;;;7.47;6.00;;;;;;;;;;5055917;28;20466;-74
2023/06/08 09:12:43;;;;;;;7.50;6.17;;;;;;;;;;5055609;28;20892;-74
2023/06/08 09:15:11;;;;;;;6.33;5.83;;;;;;;;;;5055281;28;20427;-73
2023/06/08 09:17:37;;;;;;;7.10;5.00;;;;;;;;;;5055818;28;20400;-73
2023/06/08 09:20:08;;;;;;;6.60;6.03;;;;;;;;;;5055508;28;20449;-74
2023/06/08 09:22:35;;;;;;;7.37;6.70;;;;;;;;;;5056007;28;20415;-73
2023/06/08 09:25:03;;;;;;;7.27;6.57;;;;;;;;;;5055389;28;20400;-74
2023/06/08 09:27:30;;;;;;;6.20;5.70;;;;;;;;;;5055407;28;20954;-73
2023/06/08 09:29:57;;;;;;;6.00;5.50;;;;;;;;;;5055740;28;20480;-74
2023/06/08 09:32:31;;;;;;;7.40;6.60;;;;;;;;;;5054958;28;20468;-73
2023/06/08 09:35:01;;;;;;;7.23;6.00;;;;;;;;;;5054817;28;20555;-74
2023/06/08 09:37:29;;;;;;;7.03;6.40;;;;;;;;;;5055140;28;20410;-73
2023/06/08 09:39:55;;;;;;;7.30;6.60;;;;;;;;;;5053944;28;20482;-75
2023/06/08 09:42:22;;;;;;;6.80;6.07;;;;;;;;;;5054801;28;20392;-74
2023/06/08 09:44:48;;;;;;;7.70;6.90;;;;;;;;;;5053821;28;20934;-75
2023/06/08 09:47:23;;;;;;;7.23;6.53;;;;;;;;;;5054422;28;20408;-74
2023/06/08 09:49:56;;;;;;;6.60;6.00;;;;;;;;;;5054731;28;20432;-74
2023/06/08 09:52:23;;;;;;;6.17;5.60;;;;;;;;;;5054762;28;20754;-74
2023/06/08 09:54:50;;;;;;;7.30;6.57;;;;;;;;;;5053768;28;20470;-74
2023/06/08 09:57:17;;;;;;;7.70;6.93;;;;;;;;;;5054338;28;20419;-74
2023/06/08 10:00:17;;;;;;;7.07;5.90;;;;;;;;;;5054193;28;20447;-74
2023/06/08 10:02:55;;;;;;;6.90;6.30;;;;;;;;;;5054190;28;20506;-74
2023/06/08 10:05:22;;;;;;;7.07;6.20;;;;;;;;;;5053796;28;20408;-75
2023/06/08 10:07:50;;;;;;;6.00;5.50;;;;;;;;;;5053336;28;20416;-75
2023/06/08 10:10:20;;;;;;;6.63;6.00;;;;;;;;;;5053579;28;20403;-74
2023/06/08 10:12:46;;;;;;;6.27;5.67;;;;;;;;;;5053556;28;20408;-74
2023/06/08 10:15:12;;;;;;;6.40;5.67;;;;;;;;;;5053519;28;20416;-75
2023/06/08 10:17:39;;;;;;;6.33;5.80;;;;;;;;;;5053849;28;20404;-74
2023/06/08 10:20:06;;;;;;;5.73;5.20;;;;;;;;;;5052668;28;20466;-75
2023/06/08 10:22:32;;;;;;;6.00;5.60;;;;;;;;;;5053114;28;20801;-74
2023/06/08 10:24:58;;;;;;;6.30;5.70;;;;;;;;;;5052493;28;20413;-74
2023/06/08 10:27:24;;;;;;;10.30;5.90;;;;;;;;;;5052795;28;20435;-74
2023/06/08 10:29:58;;;;;;;6.50;6.00;;;;;;;;;;5053130;28;20412;-74
2023/06/08 10:32:31;;;;;;;6.50;6.00;;;;;;;;;;5052873;28;20471;-74
2023/06/08 10:35:00;;;;;;;6.33;5.73;;;;;;;;;;5052810;28;20885;-74
2023/06/08 10:37:27;;;;;;;8.27;5.50;;;;;;;;;;5052754;28;20411;-74
2023/06/08 10:39:53;;;;;;;6.30;5.73;;;;;;;;;;5052906;28;20506;-75
2023/06/08 10:42:19;;;;;;;6.60;6.00;;;;;;;;;;5052876;28;20927;-75
2023/06/08 10:44:52;;;;;;;7.17;6.57;;;;;;;;;;5052847;28;20415;-75
2023/06/08 10:47:18;;;;;;;6.17;5.67;;;;;;;;;;5052820;28;20404;-75
2023/06/08 10:49:45;;;;;;;9.10;6.63;;;;;;;;;;5052766;28;20911;-75
2023/06/08 10:52:20;;;;;;;6.60;6.00;;;;;;;;;;5052953;28;20495;-75
2023/06/08 10:55:08;;;;;;;5.97;5.47;;;;;;;;;;5053128;28;20455;-75
2023/06/08 10:57:35;;;;;;;6.70;6.20;;;;;;;;;;5049616;28;20424;-75
2023/06/08 11:00:04;;;;;;;6.40;5.80;;;;;;;;;;5053009;28;20415;-75
2023/06/08 11:02:30;;;;;;;6.40;5.80;;;;;;;;;;5053347;28;20432;-75
2023/06/08 11:04:58;;;;;;;6.20;4.80;;;;;;;;;;5053037;28;20499;-75
2023/06/08 11:07:25;;;;;;;6.00;5.50;;;;;;;;;;5056880;28;20437;-75
2023/06/08 11:09:51;;;;;;;6.17;5.60;;;;;;;;;;5056725;28;20424;-75
2023/06/08 11:12:20;;;;;;;9.03;5.87;;;;;;;;;;5060728;28;20404;-75
2023/06/08 11:14:47;;;;;;;6.53;6.00;;;;;;;;;;5072500;28;20463;-74
2023/06/08 11:17:13;;;;;;;5.70;5.20;;;;;;;;;;5076606;28;20434;-75
2023/06/08 11:19:39;;;;;;;6.20;5.70;;;;;;;;;;5076877;28;20890;-75
2023/06/08 11:22:05;;;;;;;5.90;5.40;;;;;;;;;;5076461;28;20402;-75
2023/06/08 11:24:31;;;;;;;5.57;4.80;;;;;;;;;;5077154;28;20496;-75
2023/06/08 11:26:59;;;;;;;5.70;5.20;;;;;;;;;;5076821;28;20411;-75
2023/06/08 11:29:25;;;;;;;5.20;4.90;;;;;;;;;;5059454;28;20432;-75
2023/06/08 11:31:51;;;;;;;5.60;5.10;;;;;;;;;;5056767;28;20474;-75
2023/06/08 11:34:18;;;;;;;5.53;5.03;;;;;;;;;;5056439;28;20455;-75
2023/06/08 11:36:44;;;;;;;5.90;5.30;;;;;;;;;;5056529;28;20511;-75
2023/06/08 11:39:14;;;;;;;5.50;5.10;;;;;;;;;;5056436;28;20519;-75
2023/06/08 11:41:46;;;;;;;5.70;5.30;;;;;;;;;;5056512;28;20423;-75
2023/06/08 11:44:13;;;;;;;6.23;5.73;;;;;;;;;;5056172;28;20778;-75
2023/06/08 11:46:40;;;;;;;7.90;6.17;;;;;;;;;;5056481;28;20490;-75
2023/06/08 11:49:09;;;;;;;5.47;4.97;;;;;;;;;;5056110;28;20399;-76
2023/06/08 11:51:42;;;;;;;17.87;5.70;;;;;;;;;;5052614;28;20503;-77
2023/06/08 11:54:08;;;;;;;7.23;5.63;;;;;;;;;;5055195;28;20467;-76
2023/06/08 11:56:35;;;;;;;5.37;4.87;;;;;;;;;;5055934;28;20408;-78
2023/06/08 11:59:03;;;;;;;6.13;4.83;;;;;;;;;;5054945;28;20450;-78
2023/06/08 12:01:29;;;;;;;5.50;5.10;;;;;;;;;;5055670;28;20416;-77
2023/06/08 12:03:56;;;;;;;5.97;5.50;;;;;;;;;;5055514;28;20529;-77
2023/06/08 12:06:26;;;;;;;6.40;5.77;;;;;;;;;;5054992;28;20407;-77
2023/06/08 12:08:53;;;;;;;8.10;6.70;;;;;;;;;;5055807;28;20403;-77
2023/06/08 12:11:19;;;;;;;8.10;6.43;;;;;;;;;;5055325;28;20451;-77
2023/06/08 12:13:45;;;;;;;5.83;5.27;;;;;;;;;;5054624;28;20567;-76
2023/06/08 12:16:12;;;;;;;7.17;5.57;;;;;;;;;;5055042;28;20487;-76
2023/06/08 12:18:39;;;;;;;6.20;5.60;;;;;;;;;;5054623;28;20420;-76
2023/06/08 12:21:06;;;;;;;5.93;5.50;;;;;;;;;;5054327;28;20420;-76
2023/06/08 12:23:32;;;;;;;5.77;4.97;;;;;;;;;;5055729;28;20405;-75
2023/06/08 12:25:58;;;;;;;5.70;5.00;;;;;;;;;;5055516;28;20892;-75
2023/06/08 12:28:25;;;;;;;6.03;5.33;;;;;;;;;;5053059;28;20518;-76
2023/06/08 12:30:53;;;;;;;6.20;5.70;;;;;;;;;;5055078;28;20412;-76
2023/06/08 12:33:20;;;;;;;9.80;5.43;;;;;;;;;;5054618;28;21051;-76
2023/06/08 12:35:49;;;;;;;5.20;4.80;;;;;;;;;;5054727;28;20457;-76
2023/06/08 12:38:16;;;;;;;5.70;5.20;;;;;;;;;;5055025;28;20526;-76
2023/06/08 12:40:47;;;;;;;5.93;5.43;;;;;;;;;;5054915;28;20416;-75
2023/06/08 12:43:13;;;;;;;6.17;5.37;;;;;;;;;;5053976;28;20457;-76
2023/06/08 12:45:39;;;;;;;8.60;5.03;;;;;;;;;;5054880;28;20408;-76
2023/06/08 12:48:05;;;;;;;5.87;5.37;;;;;;;;;;5053825;28;20404;-77
2023/06/08 12:50:31;;;;;;;5.63;5.00;;;;;;;;;;5053041;28;20908;-76
2023/06/08 12:52:57;;;;;;;5.90;5.50;;;;;;;;;;5053129;28;20423;-76
2023/06/08 12:55:23;;;;;;;6.87;6.30;;;;;;;;;;5054835;28;20409;-76
2023/06/08 12:57:50;;;;;;;6.50;5.80;;;;;;;;;;5053923;28;20396;-76
2023/06/08 13:00:17;;;;;;;7.10;6.50;;;;;;;;;;5054793;28;20400;-76
2023/06/08 13:02:43;;;;;;;7.23;6.53;;;;;;;;;;5054498;28;20789;-76
2023/06/08 13:05:09;;;;;;;7.00;5.40;;;;;;;;;;5053617;28;20483;-76
2023/06/08 13:07:36;;;;;;;7.23;5.63;;;;;;;;;;5054467;28;20893;-76
2023/06/08 13:10:02;;;;;;;5.67;5.13;;;;;;;;;;5054117;28;20930;-77
2023/06/08 13:12:28;;;;;;;7.00;6.30;;;;;;;;;;5053390;28;20408;-77
2023/06/08 13:14:55;;;;;;;6.20;5.60;;;;;;;;;;5054121;28;20529;-77
2023/06/08 13:17:21;;;;;;;7.03;5.83;;;;;;;;;;5053908;28;20447;-76
2023/06/08 13:19:47;;;;;;;5.80;5.27;;;;;;;;;;5053113;28;20753;-76
2023/06/08 13:22:13;;;;;;;6.53;5.93;;;;;;;;;;5054023;28;20781;-76
2023/06/08 13:24:40;;;;;;;8.27;6.93;;;;;;;;;;5053725;28;20506;-76
2023/06/08 13:27:07;;;;;;;7.57;6.60;;;;;;;;;;5052996;28;20396;-77
2023/06/08 13:29:33;;;;;;;7.00;6.40;;;;;;;;;;5053788;28;20408;-76
2023/06/08 13:31:59;;;;;;;6.53;6.03;;;;;;;;;;5053380;28;20470;-76
2023/06/08 13:34:25;;;;;;;7.00;6.10;;;;;;;;;;5052485;28;20738;-76
2023/06/08 13:36:51;;;;;;;5.87;5.30;;;;;;;;;;5053563;28;20919;-76
2023/06/08 13:39:17;;;;;;;8.47;6.50;;;;;;;;;;5053355;28;20499;-76
2023/06/08 13:41:43;;;;;;;6.60;5.43;;;;;;;;;;5052761;28;20404;-75
2023/06/08 13:44:09;;;;;;;6.97;6.23;;;;;;;;;;5053700;28;20507;-76
2023/06/08 13:46:35;;;;;;;7.10;6.10;;;;;;;;;;5053334;28;20393;-75
2023/06/08 13:49:02;;;;;;;8.77;5.80;;;;;;;;;;5052553;28;20411;-75
2023/06/08 13:51:28;;;;;;;7.83;5.50;;;;;;;;;;5052490;28;20457;-75
2023/06/08 13:53:54;;;;;;;7.57;6.20;;;;;;;;;;5051944;28;20468;-75
2023/06/08 13:56:21;;;;;;;6.20;5.70;;;;;;;;;;5052217;28;21030;-76
2023/06/08 13:58:57;;;;;;;6.23;5.73;;;;;;;;;;5053252;28;20406;-75
2023/06/08 14:01:23;;;;;;;10.30;6.50;;;;;;;;;;5053220;28;20450;-75
2023/06/08 14:03:49;;;;;;;6.83;6.33;;;;;;;;;;5052927;28;20411;-75
2023/06/08 14:06:15;;;;;;;7.73;6.93;;;;;;;;;;5053448;28;20408;-74
2023/06/08 14:08:41;;;;;;;7.73;7.03;;;;;;;;;;5053517;28;20411;-75
2023/06/08 14:11:07;;;;;;;8.93;7.33;;;;;;;;;;5052980;28;20449;-75
2023/06/08 14:13:34;;;;;;;8.77;7.73;;;;;;;;;;5054052;28;20471;-75
2023/06/08 14:16:00;;;;;;;9.60;8.63;;;;;;;;;;5054001;28;20546;-74
2023/06/08 14:18:26;;;;;;;9.03;8.13;;;;;;;;;;5053174;28;20444;-74
2023/06/08 14:20:52;;;;;;;12.20;9.60;;;;;;;;;;5053799;28;20912;-74
2023/06/08 14:23:19;;;;;;;12.03;9.80;;;;;;;;;;5053528;28;20935;-74
2023/06/08 14:25:45;;;;;;;14.83;11.20;;;;;;;;;;5053358;28;20759;-74
2023/06/08 14:28:11;;;;;;;11.13;10.17;;;;;;;;;;5054193;28;20403;-75
2023/06/08 14:30:37;;;;;;;14.43;12.53;;;;;;;;;;5054435;28;20486;-74